Time;durP1;ratioP1;P1;durP2;ratioP2;P2;SDS_P1;SDS_P2;PMS_P1;PMS_P2;Temp;Humidity;BMP_temperature;BMP_pressure;BME280_temperature;BME280_humidity;BME280_pressure;Samples;Min_cycle;Max_cycle;Signal;HPM_P1;HPM_P2
2021/07/09 00:01:37;;;;;;;4.47;2.65;;;;;;;;;;5003020;28;20037;-81
2021/07/09 00:04:02;;;;;;;4.75;2.55;;;;;;;;;;4998279;28;20048;-81
2021/07/09 00:06:28;;;;;;;3.38;2.47;;;;;;;;;;4998537;28;20041;-81
2021/07/09 00:08:53;;;;;;;3.65;2.10;;;;;;;;;;4998459;28;20083;-81
2021/07/09 00:11:19;;;;;;;3.22;2.20;;;;;;;;;;4998200;28;20506;-81
2021/07/09 00:13:45;;;;;;;2.35;1.92;;;;;;;;;;4998316;28;20061;-81
2021/07/09 00:16:14;;;;;;;4.07;2.20;;;;;;;;;;4997894;28;20390;-81
2021/07/09 00:18:40;;;;;;;2.90;2.15;;;;;;;;;;4998168;28;20033;-81
2021/07/09 00:21:06;;;;;;;3.05;2.20;;;;;;;;;;5014432;28;20128;-81
2021/07/09 00:23:32;;;;;;;3.50;2.15;;;;;;;;;;4998230;28;20037;-81
2021/07/09 00:25:57;;;;;;;3.38;2.33;;;;;;;;;;4998333;28;20029;-81
2021/07/09 00:28:23;;;;;;;2.83;2.20;;;;;;;;;;4998236;28;20055;-81
2021/07/09 00:30:48;;;;;;;3.70;2.28;;;;;;;;;;4982119;28;20034;-81
2021/07/09 00:33:13;;;;;;;3.70;2.17;;;;;;;;;;4998077;28;20029;-81
2021/07/09 00:35:39;;;;;;;4.22;2.55;;;;;;;;;;5014238;28;20037;-81
2021/07/09 00:38:04;;;;;;;5.43;2.75;;;;;;;;;;4997146;28;20102;-80
2021/07/09 00:40:31;;;;;;;2.80;2.17;;;;;;;;;;5010859;28;20109;-81
2021/07/09 00:42:57;;;;;;;2.97;2.25;;;;;;;;;;5011486;28;20040;-80
2021/07/09 00:45:23;;;;;;;3.30;2.13;;;;;;;;;;5010924;28;20069;-81
2021/07/09 00:47:48;;;;;;;4.28;2.40;;;;;;;;;;5011075;28;20121;-81
2021/07/09 00:50:14;;;;;;;4.00;2.63;;;;;;;;;;5007665;28;20095;-81
2021/07/09 00:52:40;;;;;;;3.25;2.10;;;;;;;;;;4996954;28;20034;-81
2021/07/09 00:55:08;;;;;;;3.90;2.65;;;;;;;;;;5013995;28;20116;-81
2021/07/09 00:57:35;;;;;;;3.05;2.05;;;;;;;;;;5030406;28;20029;-81
2021/07/09 01:00:01;;;;;;;3.45;2.50;;;;;;;;;;4997697;28;20025;-81
2021/07/09 01:02:26;;;;;;;4.43;3.03;;;;;;;;;;5013918;28;20500;-81
2021/07/09 01:04:56;;;;;;;4.78;2.22;;;;;;;;;;4997765;28;20033;-80
2021/07/09 01:07:25;;;;;;;3.65;2.45;;;;;;;;;;4982081;28;20056;-81
2021/07/09 01:09:51;;;;;;;3.42;2.50;;;;;;;;;;4996990;28;20035;-81
2021/07/09 01:12:18;;;;;;;3.35;2.50;;;;;;;;;;5014180;28;20043;-81
2021/07/09 01:14:43;;;;;;;4.03;2.28;;;;;;;;;;5013805;28;20068;-81
2021/07/09 01:17:09;;;;;;;4.05;2.53;;;;;;;;;;4997403;28;20029;-81
2021/07/09 01:19:34;;;;;;;3.92;2.80;;;;;;;;;;4997038;28;20119;-81
2021/07/09 01:22:00;;;;;;;3.28;2.53;;;;;;;;;;4997401;28;20025;-80
2021/07/09 01:24:25;;;;;;;3.15;2.50;;;;;;;;;;4997245;28;20037;-82
2021/07/09 01:26:51;;;;;;;4.38;2.22;;;;;;;;;;4981483;28;20112;-83
2021/07/09 01:29:17;;;;;;;6.47;2.45;;;;;;;;;;4997431;28;20037;-83
2021/07/09 01:31:43;;;;;;;3.42;2.08;;;;;;;;;;4997480;28;20034;-83
2021/07/09 01:34:09;;;;;;;5.38;2.75;;;;;;;;;;4981096;28;20064;-83
2021/07/09 01:36:34;;;;;;;4.47;2.72;;;;;;;;;;4997345;28;20025;-83
2021/07/09 01:39:00;;;;;;;3.78;2.30;;;;;;;;;;5013166;28;20034;-82
2021/07/09 01:41:26;;;;;;;5.50;3.05;;;;;;;;;;4981195;28;20040;-82
2021/07/09 01:43:51;;;;;;;4.25;3.47;;;;;;;;;;4981129;28;20120;-82
2021/07/09 01:46:17;;;;;;;5.35;2.75;;;;;;;;;;4997573;28;20034;-82
2021/07/09 01:48:42;;;;;;;4.80;3.05;;;;;;;;;;4980325;28;20606;-82
2021/07/09 01:51:08;;;;;;;6.55;3.65;;;;;;;;;;4997433;28;20037;-83
2021/07/09 01:53:33;;;;;;;4.00;3.05;;;;;;;;;;4981154;28;20132;-82
2021/07/09 01:55:59;;;;;;;4.15;2.90;;;;;;;;;;4981073;28;20091;-83
2021/07/09 01:58:24;;;;;;;4.35;2.83;;;;;;;;;;4980622;28;20533;-82
2021/07/09 02:00:50;;;;;;;7.65;3.45;;;;;;;;;;5013578;28;20033;-82
2021/07/09 02:03:17;;;;;;;5.82;3.53;;;;;;;;;;4996758;28;20033;-83
2021/07/09 02:05:42;;;;;;;4.00;3.05;;;;;;;;;;4997402;28;20033;-83
2021/07/09 02:08:08;;;;;;;6.20;4.05;;;;;;;;;;4996734;28;20032;-83
2021/07/09 02:10:36;;;;;;;5.68;3.78;;;;;;;;;;4999041;28;20090;-82
2021/07/09 02:13:02;;;;;;;5.45;3.30;;;;;;;;;;5001072;28;20033;-83
2021/07/09 02:15:32;;;;;;;6.25;4.15;;;;;;;;;;4984372;28;20164;-82
2021/07/09 02:18:00;;;;;;;;;;;;;;;;;;5001457;28;20112;-83
2021/07/09 02:20:26;;;;;;;4.78;3.47;;;;;;;;;;5016954;28;19916;-82
2021/07/09 02:22:58;;;;;;;4.15;3.55;;;;;;;;;;5000691;28;20029;-82
2021/07/09 02:25:24;;;;;;;;;;;;;;;;;;5001059;28;20038;-82
2021/07/09 02:27:50;;;;;;;6.18;3.53;;;;;;;;;;5000662;28;19909;-82
2021/07/09 02:30:16;;;;;;;4.90;3.80;;;;;;;;;;5000792;28;20033;-82
2021/07/09 02:32:42;;;;;;;5.97;3.78;;;;;;;;;;4983812;28;20030;-82
2021/07/09 02:35:09;;;;;;;6.07;3.60;;;;;;;;;;4984000;28;20551;-83
2021/07/09 02:37:36;;;;;;;4.63;3.45;;;;;;;;;;4983829;28;20030;-82
2021/07/09 02:40:06;;;;;;;4.85;3.92;;;;;;;;;;5000323;28;20029;-83
2021/07/09 02:42:33;;;;;;;4.53;3.55;;;;;;;;;;5000752;28;20365;-82
2021/07/09 02:44:58;;;;;;;4.18;3.53;;;;;;;;;;5000189;28;20036;-83
2021/07/09 02:47:25;;;;;;;6.80;4.00;;;;;;;;;;4983706;28;20472;-82
2021/07/09 02:49:50;;;;;;;6.35;4.38;;;;;;;;;;4999906;28;20079;-83
2021/07/09 02:52:15;;;;;;;6.95;3.92;;;;;;;;;;4996798;28;20038;-83
2021/07/09 02:54:41;;;;;;;6.90;4.18;;;;;;;;;;5012700;28;20033;-83
2021/07/09 02:57:06;;;;;;;6.13;3.88;;;;;;;;;;5029667;28;20033;-82
2021/07/09 02:59:32;;;;;;;5.82;3.65;;;;;;;;;;5012684;28;20025;-82
2021/07/09 03:01:58;;;;;;;7.25;3.70;;;;;;;;;;5015515;28;20075;-83
2021/07/09 03:04:23;;;;;;;6.97;4.15;;;;;;;;;;5015975;28;20029;-83
2021/07/09 03:06:49;;;;;;;5.13;4.03;;;;;;;;;;5032548;28;20112;-83
2021/07/09 03:09:14;;;;;;;7.78;4.20;;;;;;;;;;5015964;28;20116;-83
2021/07/09 03:11:40;;;;;;;5.22;4.47;;;;;;;;;;4999378;28;20075;-83
2021/07/09 03:14:06;;;;;;;6.35;4.10;;;;;;;;;;5015912;28;20069;-83
2021/07/09 03:16:32;;;;;;;5.78;4.18;;;;;;;;;;5031620;28;20029;-83
2021/07/09 03:18:57;;;;;;;6.60;4.10;;;;;;;;;;5032113;28;20036;-83
2021/07/09 03:21:23;;;;;;;5.03;3.92;;;;;;;;;;5031448;28;20496;-83
2021/07/09 03:23:48;;;;;;;5.75;3.83;;;;;;;;;;5015518;28;20034;-83
2021/07/09 03:26:14;;;;;;;4.80;4.28;;;;;;;;;;4999332;28;20029;-83
2021/07/09 03:28:39;;;;;;;6.18;4.13;;;;;;;;;;5032261;28;20068;-83
2021/07/09 03:31:05;;;;;;;5.93;3.75;;;;;;;;;;4999098;28;20029;-83
2021/07/09 03:33:30;;;;;;;6.70;4.57;;;;;;;;;;5015785;28;20025;-83
2021/07/09 03:35:56;;;;;;;5.82;4.30;;;;;;;;;;5015249;28;20026;-83
2021/07/09 03:38:21;;;;;;;6.18;4.15;;;;;;;;;;5014888;28;20040;-83
2021/07/09 03:40:47;;;;;;;6.43;4.13;;;;;;;;;;5015486;28;20032;-83
2021/07/09 03:43:12;;;;;;;5.80;4.45;;;;;;;;;;4999305;28;20115;-83
2021/07/09 03:45:38;;;;;;;10.00;5.60;;;;;;;;;;5031735;28;20045;-83
2021/07/09 03:48:04;;;;;;;7.45;5.00;;;;;;;;;;5032176;28;20506;-83
2021/07/09 03:50:30;;;;;;;5.90;4.53;;;;;;;;;;5014953;28;20104;-82
2021/07/09 03:52:55;;;;;;;5.20;4.28;;;;;;;;;;5015202;28;20091;-83
2021/07/09 03:55:21;;;;;;;8.63;4.20;;;;;;;;;;5015147;28;20099;-83
2021/07/09 03:57:46;;;;;;;6.43;4.53;;;;;;;;;;5014900;28;20038;-83
2021/07/09 04:00:13;;;;;;;6.47;4.57;;;;;;;;;;5014660;28;20025;-82
2021/07/09 04:02:39;;;;;;;6.40;4.53;;;;;;;;;;4998530;28;20025;-83
2021/07/09 04:05:05;;;;;;;6.25;4.75;;;;;;;;;;5031310;28;20083;-82
2021/07/09 04:07:31;;;;;;;6.00;4.57;;;;;;;;;;4998363;28;20503;-83
2021/07/09 04:09:56;;;;;;;6.10;4.28;;;;;;;;;;5014925;28;20029;-82
2021/07/09 04:12:22;;;;;;;8.70;4.50;;;;;;;;;;4998325;28;20036;-83
2021/07/09 04:14:47;;;;;;;8.95;5.15;;;;;;;;;;5030782;28;20030;-83
2021/07/09 04:17:13;;;;;;;6.07;4.35;;;;;;;;;;5014492;28;20029;-83
2021/07/09 04:19:38;;;;;;;6.03;4.60;;;;;;;;;;4998127;28;20057;-83
2021/07/09 04:22:03;;;;;;;6.75;4.57;;;;;;;;;;4998431;28;20037;-83
2021/07/09 04:24:29;;;;;;;8.10;5.10;;;;;;;;;;5014358;28;20075;-83
2021/07/09 04:26:54;;;;;;;5.72;4.68;;;;;;;;;;5014695;28;20030;-83
2021/07/09 04:29:20;;;;;;;5.93;4.38;;;;;;;;;;5014563;28;20082;-83
2021/07/09 04:31:46;;;;;;;6.43;4.45;;;;;;;;;;5014520;28;20036;-83
2021/07/09 04:34:12;;;;;;;8.95;4.75;;;;;;;;;;5014033;28;20030;-83
2021/07/09 04:36:37;;;;;;;6.22;4.63;;;;;;;;;;5014334;28;20025;-82
2021/07/09 04:39:03;;;;;;;5.95;4.15;;;;;;;;;;5014580;28;20029;-83
2021/07/09 04:41:28;;;;;;;6.50;4.40;;;;;;;;;;5014085;28;20045;-82
2021/07/09 04:43:54;;;;;;;6.40;4.40;;;;;;;;;;5014276;28;20360;-82
2021/07/09 04:46:20;;;;;;;5.47;4.28;;;;;;;;;;5030490;28;20067;-82
2021/07/09 04:48:45;;;;;;;5.90;4.53;;;;;;;;;;5013943;28;20454;-83
2021/07/09 04:51:13;;;;;;;4.88;4.25;;;;;;;;;;4994833;28;20492;-83
2021/07/09 04:53:38;;;;;;;6.15;4.15;;;;;;;;;;5027312;28;20034;-83
2021/07/09 04:56:04;;;;;;;6.82;4.47;;;;;;;;;;5027281;28;20084;-83
2021/07/09 04:58:29;;;;;;;6.45;4.13;;;;;;;;;;5010427;28;20034;-83
2021/07/09 05:00:55;;;;;;;6.60;5.25;;;;;;;;;;5010183;28;20026;-83
2021/07/09 05:03:21;;;;;;;5.60;4.10;;;;;;;;;;5013861;28;20034;-82
2021/07/09 05:05:47;;;;;;;5.30;4.80;;;;;;;;;;4981565;28;20135;-83
2021/07/09 05:08:12;;;;;;;6.13;4.60;;;;;;;;;;4997275;28;20037;-83
2021/07/09 05:10:38;;;;;;;5.38;4.43;;;;;;;;;;4981438;28;20040;-83
2021/07/09 05:13:05;;;;;;;5.82;4.25;;;;;;;;;;4981244;28;20064;-82
2021/07/09 05:15:32;;;;;;;5.40;4.05;;;;;;;;;;4981466;28;20033;-83
2021/07/09 05:17:58;;;;;;;5.07;4.40;;;;;;;;;;4997562;28;20052;-83
2021/07/09 05:20:23;;;;;;;5.72;4.60;;;;;;;;;;4981234;28;20041;-83
2021/07/09 05:22:49;;;;;;;6.65;4.70;;;;;;;;;;4998833;28;20037;-88
2021/07/09 05:25:17;;;;;;;6.65;5.05;;;;;;;;;;4982117;28;20099;-87
2021/07/09 05:27:43;;;;;;;6.13;4.75;;;;;;;;;;4981792;28;20025;-88
2021/07/09 05:30:12;;;;;;;7.97;4.40;;;;;;;;;;4982467;28;20033;-87
2021/07/09 05:32:39;;;;;;;5.72;4.60;;;;;;;;;;4982322;28;20029;-86
2021/07/09 05:35:05;;;;;;;5.22;4.22;;;;;;;;;;4981990;28;20052;-85
2021/07/09 05:37:32;;;;;;;8.13;5.07;;;;;;;;;;4997739;28;20032;-85
2021/07/09 05:39:57;;;;;;;6.70;4.53;;;;;;;;;;4998139;28;20029;-84
2021/07/09 05:42:23;;;;;;;8.38;5.85;;;;;;;;;;4997827;28;20065;-85
2021/07/09 05:44:48;;;;;;;9.82;5.70;;;;;;;;;;4983407;28;20048;-88
2021/07/09 05:47:15;;;;;;;10.32;8.02;;;;;;;;;;4986453;28;20042;-86
2021/07/09 05:49:43;;;;;;;12.68;9.80;;;;;;;;;;4986461;28;20079;-89
2021/07/09 05:52:09;;;;;;;17.70;11.20;;;;;;;;;;5002796;28;20033;-88
2021/07/09 05:54:34;;;;;;;10.65;9.55;;;;;;;;;;5018535;28;20164;-87
2021/07/09 05:57:00;;;;;;;10.82;9.82;;;;;;;;;;4985941;28;20186;-88
2021/07/09 05:59:25;;;;;;;11.93;10.57;;;;;;;;;;4986198;28;20025;-88
2021/07/09 06:01:51;;;;;;;18.10;10.65;;;;;;;;;;5002260;28;20480;-88
2021/07/09 06:04:17;;;;;;;15.18;9.02;;;;;;;;;;5002025;28;20098;-89
2021/07/09 06:06:43;;;;;;;16.67;9.15;;;;;;;;;;5002192;28;20030;-89
2021/07/09 06:09:10;;;;;;;12.13;8.50;;;;;;;;;;5002087;28;20121;-89
2021/07/09 06:11:37;;;;;;;9.25;7.68;;;;;;;;;;5001252;28;20060;-89
2021/07/09 06:14:05;;;;;;;10.88;8.10;;;;;;;;;;5002243;28;20033;-90
2021/07/09 06:16:37;;;;;;;8.55;7.05;;;;;;;;;;4985889;28;20476;-90
2021/07/09 06:19:02;;;;;;;9.00;7.00;;;;;;;;;;4985950;28;20120;-89
2021/07/09 06:21:30;;;;;;;11.25;7.10;;;;;;;;;;4985968;28;20192;-88
2021/07/09 06:23:55;;;;;;;8.98;6.70;;;;;;;;;;4986038;28;20029;-90
2021/07/09 06:26:21;;;;;;;9.60;6.95;;;;;;;;;;5001944;28;20086;-90
2021/07/09 06:28:48;;;;;;;10.73;7.82;;;;;;;;;;4985628;28;20032;-89
2021/07/09 06:31:16;;;;;;;7.85;6.45;;;;;;;;;;4985811;28;20021;-89
2021/07/09 06:33:44;;;;;;;8.50;6.70;;;;;;;;;;5001900;28;20033;-90
2021/07/09 06:36:09;;;;;;;10.32;5.88;;;;;;;;;;4985227;28;20041;-88
2021/07/09 06:38:41;;;;;;;8.75;6.65;;;;;;;;;;5001384;28;20071;-87
2021/07/09 06:41:09;;;;;;;10.50;5.57;;;;;;;;;;5001135;28;20051;-92
2021/07/09 06:43:35;;;;;;;10.13;5.55;;;;;;;;;;4984087;28;20697;-84
2021/07/09 06:46:01;;;;;;;10.52;6.18;;;;;;;;;;4995759;28;20033;-86
2021/07/09 06:48:28;;;;;;;6.43;5.75;;;;;;;;;;5000845;28;20029;-86
2021/07/09 06:50:54;;;;;;;9.73;6.20;;;;;;;;;;5000178;28;20030;-87
2021/07/09 06:53:21;;;;;;;9.88;6.20;;;;;;;;;;4983861;28;20034;-86
2021/07/09 06:55:48;;;;;;;7.53;5.75;;;;;;;;;;4999060;28;20488;-86
2021/07/09 06:58:14;;;;;;;9.45;5.55;;;;;;;;;;5000138;28;20036;-87
2021/07/09 07:00:41;;;;;;;8.65;6.05;;;;;;;;;;4984354;28;20503;-86
2021/07/09 07:03:08;;;;;;;8.75;5.40;;;;;;;;;;5000172;28;20022;-86
2021/07/09 07:05:34;;;;;;;8.50;5.50;;;;;;;;;;4984106;28;20075;-84
2021/07/09 07:08:16;;;;;;;7.95;5.82;;;;;;;;;;4999570;28;20029;-86
2021/07/09 07:10:43;;;;;;;8.00;5.18;;;;;;;;;;4984060;28;20030;-85
2021/07/09 07:13:09;;;;;;;7.78;5.75;;;;;;;;;;4984006;28;20080;-85
2021/07/09 07:15:37;;;;;;;10.05;6.35;;;;;;;;;;5000121;28;20487;-85
2021/07/09 07:18:08;;;;;;;7.70;5.55;;;;;;;;;;5000238;28;20029;-90
2021/07/09 07:20:39;;;;;;;10.52;5.97;;;;;;;;;;4984674;28;20364;-96
2021/07/09 07:23:15;;;;;;;8.68;5.60;;;;;;;;;;4984945;28;20037;-94
2021/07/09 07:25:45;;;;;;;9.35;5.30;;;;;;;;;;4984999;28;20072;-94
2021/07/09 07:28:13;;;;;;;7.00;5.35;;;;;;;;;;4984743;28;20395;-92
2021/07/09 07:30:41;;;;;;;8.88;5.38;;;;;;;;;;4985218;28;20889;-91
2021/07/09 07:33:09;;;;;;;9.18;6.30;;;;;;;;;;5000685;28;20021;-91
2021/07/09 07:35:38;;;;;;;8.40;5.40;;;;;;;;;;4984919;28;20068;-88
2021/07/09 07:38:08;;;;;;;6.10;5.20;;;;;;;;;;4999734;28;20025;-89
2021/07/09 07:40:35;;;;;;;8.13;5.32;;;;;;;;;;4984398;28;20068;-88
2021/07/09 07:43:00;;;;;;;9.07;5.18;;;;;;;;;;4984062;28;20043;-86
2021/07/09 07:45:34;;;;;;;9.73;6.00;;;;;;;;;;4995895;28;20109;-90
2021/07/09 07:48:02;;;;;;;7.03;5.15;;;;;;;;;;4996806;28;20148;-87
2021/07/09 07:50:37;;;;;;;7.32;5.22;;;;;;;;;;5010795;28;20021;-89
2021/07/09 07:53:06;;;;;;;7.47;5.65;;;;;;;;;;5000700;28;20100;-88
2021/07/09 07:55:39;;;;;;;5.90;3.90;;;;;;;;;;5000396;28;20041;-89
2021/07/09 07:58:10;;;;;;;5.88;4.28;;;;;;;;;;5001695;28;20525;-85
2021/07/09 08:00:38;;;;;;;8.52;5.13;;;;;;;;;;4999059;28;20028;-87
2021/07/09 08:03:04;;;;;;;7.32;4.68;;;;;;;;;;4995153;28;20034;-86
2021/07/09 08:05:31;;;;;;;6.80;4.30;;;;;;;;;;4979584;28;20052;-85
2021/07/09 08:07:57;;;;;;;7.25;4.38;;;;;;;;;;4980547;28;20124;-86
2021/07/09 08:10:23;;;;;;;6.65;4.20;;;;;;;;;;5015253;28;20113;-85
2021/07/09 08:12:52;;;;;;;4.55;3.25;;;;;;;;;;5014827;28;20033;-86
2021/07/09 08:15:18;;;;;;;6.50;4.82;;;;;;;;;;4998784;28;20039;-87
2021/07/09 08:17:44;;;;;;;6.20;4.35;;;;;;;;;;4999030;28;20033;-87
2021/07/09 08:20:10;;;;;;;4.63;3.78;;;;;;;;;;4999330;28;20471;-87
2021/07/09 08:22:38;;;;;;;6.43;3.70;;;;;;;;;;4983009;28;20033;-87
2021/07/09 08:25:08;;;;;;;5.80;3.92;;;;;;;;;;5014962;28;20033;-86
2021/07/09 08:27:39;;;;;;;4.95;3.75;;;;;;;;;;4982828;28;20063;-86
2021/07/09 08:30:11;;;;;;;5.03;3.85;;;;;;;;;;5014706;28;20026;-86
2021/07/09 08:32:38;;;;;;;;;;;;;;;;;;4999158;28;20030;-86
2021/07/09 08:35:04;;;;;;;5.00;3.40;;;;;;;;;;4998322;28;19905;-86
2021/07/09 08:37:30;;;;;;;4.88;3.35;;;;;;;;;;4997764;28;20064;-84
2021/07/09 08:39:57;;;;;;;3.92;2.72;;;;;;;;;;4998407;28;20037;-85
2021/07/09 08:42:23;;;;;;;4.85;3.42;;;;;;;;;;5014676;28;20037;-85
2021/07/09 08:44:49;;;;;;;5.15;3.53;;;;;;;;;;5013871;28;20065;-84
2021/07/09 08:47:14;;;;;;;5.03;3.22;;;;;;;;;;5014168;28;20059;-82
2021/07/09 08:49:43;;;;;;;5.50;3.05;;;;;;;;;;4997513;28;20086;-84
2021/07/09 08:52:08;;;;;;;4.07;2.80;;;;;;;;;;4998637;28;20040;-84
2021/07/09 08:54:34;;;;;;;3.88;2.75;;;;;;;;;;4997358;28;20400;-84
2021/07/09 08:56:59;;;;;;;6.25;3.08;;;;;;;;;;4998272;28;20040;-84
2021/07/09 08:59:25;;;;;;;3.65;2.78;;;;;;;;;;4998146;28;20029;-83
2021/07/09 09:01:56;;;;;;;4.88;2.50;;;;;;;;;;4997696;28;20079;-84
2021/07/09 09:04:43;;;;;;;4.20;2.85;;;;;;;;;;4997633;28;20548;-84
2021/07/09 09:07:11;;;;;;;3.88;2.38;;;;;;;;;;5013519;28;20037;-83
2021/07/09 09:09:37;;;;;;;5.72;2.50;;;;;;;;;;4992795;28;20053;-83
2021/07/09 09:12:04;;;;;;;3.88;2.47;;;;;;;;;;4978405;28;20034;-83
2021/07/09 09:14:32;;;;;;;4.60;2.22;;;;;;;;;;4994257;28;20128;-83
2021/07/09 09:16:58;;;;;;;3.35;2.85;;;;;;;;;;4978286;28;20030;-84
2021/07/09 09:19:24;;;;;;;4.22;2.90;;;;;;;;;;4979938;28;20045;-83
2021/07/09 09:22:09;;;;;;;3.60;2.75;;;;;;;;;;4982300;28;20100;-83
2021/07/09 09:24:35;;;;;;;4.07;3.22;;;;;;;;;;4998121;28;20030;-83
2021/07/09 09:27:01;;;;;;;4.47;3.13;;;;;;;;;;4982694;28;20428;-85
2021/07/09 09:29:27;;;;;;;3.55;3.10;;;;;;;;;;4982768;28;20034;-85
2021/07/09 09:31:53;;;;;;;4.43;3.40;;;;;;;;;;5014806;28;20037;-86
2021/07/09 09:34:46;;;;;;;4.50;3.30;;;;;;;;;;4982198;28;20092;-86
2021/07/09 09:37:20;;;;;;;5.93;3.53;;;;;;;;;;4998357;28;20120;-85
2021/07/09 09:39:46;;;;;;;4.43;3.42;;;;;;;;;;4982118;28;20030;-85
2021/07/09 09:42:19;;;;;;;6.50;3.90;;;;;;;;;;4982196;28;20030;-85
2021/07/09 09:44:46;;;;;;;4.97;4.05;;;;;;;;;;4998110;28;20038;-85
2021/07/09 09:47:16;;;;;;;4.68;4.18;;;;;;;;;;4981847;28;20057;-85
2021/07/09 09:49:43;;;;;;;5.80;5.18;;;;;;;;;;4990331;28;20025;-85
2021/07/09 09:52:09;;;;;;;5.97;5.43;;;;;;;;;;4985786;28;20423;-83
2021/07/09 09:54:34;;;;;;;5.95;4.63;;;;;;;;;;4984519;28;20052;-84
2021/07/09 09:57:01;;;;;;;6.68;5.30;;;;;;;;;;4984874;28;20075;-86
2021/07/09 09:59:28;;;;;;;6.07;5.05;;;;;;;;;;4985223;28;20113;-83
2021/07/09 10:01:55;;;;;;;5.93;5.32;;;;;;;;;;5000733;28;20021;-83
2021/07/09 10:04:21;;;;;;;6.35;5.18;;;;;;;;;;5016404;28;20030;-83
2021/07/09 10:06:47;;;;;;;5.57;4.95;;;;;;;;;;5000528;28;20029;-83
2021/07/09 10:09:13;;;;;;;6.20;5.15;;;;;;;;;;5000799;28;20030;-83
2021/07/09 10:11:39;;;;;;;5.38;4.88;;;;;;;;;;5000695;28;20828;-84
2021/07/09 10:14:07;;;;;;;5.88;5.07;;;;;;;;;;5000652;28;20036;-83
2021/07/09 10:16:33;;;;;;;6.43;5.82;;;;;;;;;;5000642;28;20377;-83
2021/07/09 10:18:58;;;;;;;5.47;4.95;;;;;;;;;;5000637;28;20052;-83
2021/07/09 10:21:24;;;;;;;6.15;5.28;;;;;;;;;;5000547;28;20111;-83
2021/07/09 10:23:49;;;;;;;4.97;4.35;;;;;;;;;;5000625;28;20042;-83
2021/07/09 10:26:18;;;;;;;5.55;4.45;;;;;;;;;;5000543;28;20029;-83
2021/07/09 10:29:16;;;;;;;6.15;5.40;;;;;;;;;;5000610;28;20030;-83
2021/07/09 10:31:42;;;;;;;5.85;5.25;;;;;;;;;;5015570;28;20033;-83
2021/07/09 10:34:28;;;;;;;5.93;5.30;;;;;;;;;;5000707;28;20029;-83
2021/07/09 10:37:00;;;;;;;5.78;5.18;;;;;;;;;;5016539;28;20025;-83
2021/07/09 10:39:35;;;;;;;;;;;;;;;;;;5000860;28;20030;-83
2021/07/09 10:42:23;;;;;;;5.30;4.80;;;;;;;;;;5033070;28;19912;-84
2021/07/09 10:45:04;;;;;;;6.18;5.57;;;;;;;;;;5017653;28;20030;-83
2021/07/09 10:47:39;;;;;;;5.82;5.05;;;;;;;;;;5032866;28;20123;-83
2021/07/09 10:50:06;;;;;;;5.80;5.20;;;;;;;;;;5016800;28;20025;-82
2021/07/09 10:52:57;;;;;;;4.93;4.43;;;;;;;;;;4999535;28;20033;-81
2021/07/09 10:55:28;;;;;;;5.10;4.60;;;;;;;;;;5001277;28;20045;-82
2021/07/09 10:58:23;;;;;;;6.03;4.38;;;;;;;;;;5026217;28;20408;-82
2021/07/09 11:00:52;;;;;;;8.13;4.80;;;;;;;;;;4995892;28;20034;-82
2021/07/09 11:03:42;;;;;;;5.68;4.95;;;;;;;;;;5013675;28;20025;-82
2021/07/09 11:06:12;;;;;;;6.45;4.78;;;;;;;;;;5032858;28;20031;-81
2021/07/09 11:08:51;;;;;;;5.20;4.70;;;;;;;;;;5032718;28;20040;-82
2021/07/09 11:11:31;;;;;;;5.53;4.90;;;;;;;;;;5032575;28;20025;-82
2021/07/09 11:14:02;;;;;;;4.85;4.13;;;;;;;;;;5049204;28;20442;-82
2021/07/09 11:16:30;;;;;;;4.88;4.38;;;;;;;;;;5015443;28;20030;-83
2021/07/09 11:19:04;;;;;;;5.00;4.50;;;;;;;;;;5016363;28;20107;-83
2021/07/09 11:21:30;;;;;;;5.20;4.22;;;;;;;;;;5048935;28;20147;-83
2021/07/09 11:24:05;;;;;;;5.88;4.45;;;;;;;;;;5048919;28;20064;-83
2021/07/09 11:26:32;;;;;;;4.47;4.07;;;;;;;;;;5032111;28;20029;-84
2021/07/09 11:28:58;;;;;;;4.50;4.10;;;;;;;;;;5015686;28;20036;-83
2021/07/09 11:31:31;;;;;;;5.10;4.15;;;;;;;;;;5015693;28;20030;-83
2021/07/09 11:34:06;;;;;;;6.60;4.78;;;;;;;;;;5032333;28;20063;-84
2021/07/09 11:36:45;;;;;;;4.65;4.13;;;;;;;;;;5031614;28;20025;-84
2021/07/09 11:39:15;;;;;;;4.95;4.38;;;;;;;;;;5031825;28;20033;-84
2021/07/09 11:42:00;;;;;;;4.85;4.35;;;;;;;;;;5031816;28;20511;-84
2021/07/09 11:44:53;;;;;;;6.07;4.10;;;;;;;;;;5014643;28;20036;-83
2021/07/09 11:47:23;;;;;;;4.70;4.07;;;;;;;;;;5001712;28;20053;-83
2021/07/09 11:49:51;;;;;;;6.45;4.13;;;;;;;;;;5032300;28;20025;-84
2021/07/09 11:52:24;;;;;;;4.65;3.90;;;;;;;;;;4998320;28;20561;-83
2021/07/09 11:54:50;;;;;;;4.50;4.10;;;;;;;;;;4999544;28;20068;-83
2021/07/09 11:57:17;;;;;;;5.30;4.15;;;;;;;;;;4999073;28;20404;-83
2021/07/09 11:59:44;;;;;;;5.40;4.40;;;;;;;;;;4998649;28;20080;-83
2021/07/09 12:02:20;;;;;;;5.78;4.00;;;;;;;;;;4998332;28;20554;-83
2021/07/09 12:04:54;;;;;;;5.30;3.72;;;;;;;;;;5031641;28;20116;-83
2021/07/09 12:07:19;;;;;;;4.35;3.72;;;;;;;;;;5031339;28;20037;-83
2021/07/09 12:09:47;;;;;;;4.88;4.32;;;;;;;;;;5047888;28;20080;-82
2021/07/09 12:12:16;;;;;;;6.40;3.40;;;;;;;;;;5031431;28;20025;-83
2021/07/09 12:14:58;;;;;;;5.85;3.88;;;;;;;;;;5031425;28;20076;-83
2021/07/09 12:17:26;;;;;;;4.70;3.90;;;;;;;;;;5014683;28;20087;-83
2021/07/09 12:19:57;;;;;;;5.32;3.92;;;;;;;;;;5014994;28;20037;-83
2021/07/09 12:22:26;;;;;;;5.78;4.00;;;;;;;;;;5031810;28;20055;-87
2021/07/09 12:24:52;;;;;;;4.32;3.80;;;;;;;;;;5031646;28;20029;-87
2021/07/09 12:27:19;;;;;;;5.80;4.35;;;;;;;;;;5031427;28;20387;-87
2021/07/09 12:29:46;;;;;;;4.47;4.07;;;;;;;;;;5032020;28;20030;-85
2021/07/09 12:32:11;;;;;;;5.13;3.30;;;;;;;;;;4999009;28;20111;-85
2021/07/09 12:34:38;;;;;;;5.55;3.72;;;;;;;;;;5014309;28;20076;-85
2021/07/09 12:37:04;;;;;;;6.50;4.25;;;;;;;;;;5014348;28;20022;-85
2021/07/09 12:39:29;;;;;;;4.95;3.70;;;;;;;;;;5014481;28;20029;-85
2021/07/09 12:41:55;;;;;;;4.78;3.53;;;;;;;;;;5014501;28;20383;-84
2021/07/09 12:44:20;;;;;;;4.28;3.70;;;;;;;;;;5014399;28;20105;-84
2021/07/09 12:46:46;;;;;;;6.03;4.10;;;;;;;;;;5002201;28;20046;-84
2021/07/09 12:49:14;;;;;;;4.53;3.35;;;;;;;;;;4999010;28;20025;-84
2021/07/09 12:51:41;;;;;;;6.05;4.15;;;;;;;;;;4998020;28;20037;-84
2021/07/09 12:54:09;;;;;;;6.93;4.20;;;;;;;;;;4981458;28;20479;-84
2021/07/09 12:56:42;;;;;;;6.50;3.90;;;;;;;;;;4997790;28;20026;-86
2021/07/09 12:59:09;;;;;;;7.15;3.65;;;;;;;;;;4997925;28;20025;-85
2021/07/09 13:01:39;;;;;;;8.18;4.20;;;;;;;;;;4981732;28;20487;-85
2021/07/09 13:04:19;;;;;;;6.30;4.18;;;;;;;;;;4981288;28;20037;-84
2021/07/09 13:06:46;;;;;;;5.15;3.90;;;;;;;;;;5030300;28;20033;-85
2021/07/09 13:09:19;;;;;;;5.65;3.83;;;;;;;;;;4980834;28;20032;-84
2021/07/09 13:11:46;;;;;;;6.15;4.00;;;;;;;;;;4998320;28;20033;-84
2021/07/09 13:14:28;;;;;;;4.18;3.50;;;;;;;;;;4996922;28;20032;-85
2021/07/09 13:16:55;;;;;;;6.35;3.80;;;;;;;;;;4992359;28;20030;-84
2021/07/09 13:19:28;;;;;;;6.35;3.80;;;;;;;;;;4980001;28;20495;-84
2021/07/09 13:21:55;;;;;;;6.38;4.35;;;;;;;;;;4993997;28;20022;-84
2021/07/09 13:24:28;;;;;;;6.53;4.18;;;;;;;;;;4995682;28;20026;-84
2021/07/09 13:26:54;;;;;;;8.70;6.78;;;;;;;;;;4979459;28;20034;-84
2021/07/09 13:29:23;;;;;;;9.18;7.47;;;;;;;;;;5000647;28;20095;-84
2021/07/09 13:31:51;;;;;;;9.55;6.70;;;;;;;;;;4995671;28;20026;-84
2021/07/09 13:34:17;;;;;;;6.13;4.88;;;;;;;;;;4999753;28;20058;-83
2021/07/09 13:36:42;;;;;;;7.40;4.55;;;;;;;;;;4995619;28;20025;-84
2021/07/09 13:39:09;;;;;;;6.32;4.85;;;;;;;;;;4980186;28;20090;-84
2021/07/09 13:41:34;;;;;;;7.68;3.92;;;;;;;;;;4978959;28;20119;-83
2021/07/09 13:44:00;;;;;;;5.22;3.88;;;;;;;;;;4995927;28;20100;-84
2021/07/09 13:46:25;;;;;;;7.28;4.72;;;;;;;;;;4994947;28;20049;-83
2021/07/09 13:48:51;;;;;;;4.72;4.20;;;;;;;;;;4996125;28;20116;-85
2021/07/09 13:51:18;;;;;;;6.93;3.90;;;;;;;;;;4979492;28;20022;-83
2021/07/09 13:53:45;;;;;;;5.05;3.83;;;;;;;;;;5012116;28;20076;-83
2021/07/09 13:56:11;;;;;;;5.75;3.95;;;;;;;;;;4996004;28;20017;-84
2021/07/09 13:58:37;;;;;;;5.47;3.47;;;;;;;;;;4994209;28;20040;-84
2021/07/09 14:01:03;;;;;;;4.32;3.38;;;;;;;;;;4996235;28;20021;-83
2021/07/09 14:03:28;;;;;;;4.10;3.65;;;;;;;;;;4996210;28;20415;-84
2021/07/09 14:05:54;;;;;;;5.45;3.45;;;;;;;;;;5008223;28;20029;-83
2021/07/09 14:08:20;;;;;;;4.35;3.33;;;;;;;;;;4999673;28;20030;-84
2021/07/09 14:10:47;;;;;;;4.68;3.38;;;;;;;;;;5000217;28;20025;-84
2021/07/09 14:13:13;;;;;;;7.45;5.22;;;;;;;;;;5002301;28;20395;-83
2021/07/09 14:15:39;;;;;;;6.88;5.45;;;;;;;;;;5000470;28;20033;-84
2021/07/09 14:18:05;;;;;;;7.18;5.68;;;;;;;;;;5000595;28;20065;-85
2021/07/09 14:20:31;;;;;;;20.70;14.20;;;;;;;;;;5000738;28;20021;-84
2021/07/09 14:23:00;;;;;;;10.02;7.78;;;;;;;;;;4984358;28;20041;-85
2021/07/09 14:25:25;;;;;;;7.75;5.70;;;;;;;;;;4998528;28;20026;-85
2021/07/09 14:27:51;;;;;;;6.55;4.30;;;;;;;;;;4982481;28;20025;-83
2021/07/09 14:30:17;;;;;;;6.35;4.03;;;;;;;;;;4999569;28;20025;-83
2021/07/09 14:32:46;;;;;;;7.03;3.95;;;;;;;;;;4982784;28;20512;-85
2021/07/09 14:35:12;;;;;;;5.68;3.80;;;;;;;;;;4998973;28;20028;-81
2021/07/09 14:37:39;;;;;;;3.97;3.35;;;;;;;;;;4996154;28;20056;-85
2021/07/09 14:40:05;;;;;;;5.97;3.25;;;;;;;;;;4998632;28;20029;-83
2021/07/09 14:42:31;;;;;;;4.60;3.33;;;;;;;;;;4982285;28;20467;-83
2021/07/09 14:44:56;;;;;;;5.75;3.25;;;;;;;;;;4973942;28;20041;-84
2021/07/09 14:47:22;;;;;;;4.85;3.53;;;;;;;;;;5017995;28;20030;-84